sensor_id;sensor_type;location;lat;lon;timestamp;P1;durP1;ratioP1;P2;durP2;ratioP2
31848;SDS011;18414;59.352;18.152;2023-04-25T00:00:33;3.43;;;2.60;;
31848;SDS011;18414;59.352;18.152;2023-04-25T00:02:59;4.23;;;2.60;;
31848;SDS011;18414;59.352;18.152;2023-04-25T00:05:25;2.90;;;2.53;;
31848;SDS011;18414;59.352;18.152;2023-04-25T00:07:51;2.93;;;2.50;;
31848;SDS011;18414;59.352;18.152;2023-04-25T00:10:16;3.43;;;2.67;;
31848;SDS011;18414;59.352;18.152;2023-04-25T00:12:41;3.97;;;2.70;;
31848;SDS011;18414;59.352;18.152;2023-04-25T00:15:07;4.40;;;2.97;;
31848;SDS011;18414;59.352;18.152;2023-04-25T00:17:33;4.90;;;2.70;;
31848;SDS011;18414;59.352;18.152;2023-04-25T00:19:59;3.50;;;2.83;;
31848;SDS011;18414;59.352;18.152;2023-04-25T00:22:25;3.90;;;3.07;;
31848;SDS011;18414;59.352;18.152;2023-04-25T00:24:51;3.07;;;2.53;;
31848;SDS011;18414;59.352;18.152;2023-04-25T00:27:18;4.40;;;2.70;;
31848;SDS011;18414;59.352;18.152;2023-04-25T00:29:43;2.80;;;2.53;;
31848;SDS011;18414;59.352;18.152;2023-04-25T00:32:09;4.07;;;3.00;;
31848;SDS011;18414;59.352;18.152;2023-04-25T00:34:34;5.20;;;3.00;;
31848;SDS011;18414;59.352;18.152;2023-04-25T00:37:00;3.90;;;2.70;;
31848;SDS011;18414;59.352;18.152;2023-04-25T00:39:27;3.27;;;2.50;;
31848;SDS011;18414;59.352;18.152;2023-04-25T00:41:52;5.07;;;2.80;;
31848;SDS011;18414;59.352;18.152;2023-04-25T00:44:19;3.07;;;2.50;;
31848;SDS011;18414;59.352;18.152;2023-04-25T00:46:45;3.70;;;2.60;;
31848;SDS011;18414;59.352;18.152;2023-04-25T00:49:12;4.43;;;2.87;;
31848;SDS011;18414;59.352;18.152;2023-04-25T00:51:40;3.47;;;2.73;;
31848;SDS011;18414;59.352;18.152;2023-04-25T00:54:06;3.87;;;2.70;;
31848;SDS011;18414;59.352;18.152;2023-04-25T00:56:31;2.90;;;2.40;;
31848;SDS011;18414;59.352;18.152;2023-04-25T00:58:56;3.27;;;2.10;;
31848;SDS011;18414;59.352;18.152;2023-04-25T01:01:22;3.63;;;2.37;;
31848;SDS011;18414;59.352;18.152;2023-04-25T01:03:47;3.63;;;2.30;;
31848;SDS011;18414;59.352;18.152;2023-04-25T01:06:15;2.47;;;1.37;;
31848;SDS011;18414;59.352;18.152;2023-04-25T01:08:41;2.40;;;2.03;;
31848;SDS011;18414;59.352;18.152;2023-04-25T01:11:07;2.77;;;2.30;;
31848;SDS011;18414;59.352;18.152;2023-04-25T01:13:32;3.70;;;2.50;;
31848;SDS011;18414;59.352;18.152;2023-04-25T01:15:58;3.20;;;2.17;;
31848;SDS011;18414;59.352;18.152;2023-04-25T01:18:24;2.90;;;2.53;;
31848;SDS011;18414;59.352;18.152;2023-04-25T01:20:53;3.83;;;2.60;;
31848;SDS011;18414;59.352;18.152;2023-04-25T01:23:22;3.37;;;2.50;;
31848;SDS011;18414;59.352;18.152;2023-04-25T01:25:48;3.40;;;2.67;;
31848;SDS011;18414;59.352;18.152;2023-04-25T01:28:14;2.83;;;1.90;;
31848;SDS011;18414;59.352;18.152;2023-04-25T01:30:40;2.93;;;2.10;;
31848;SDS011;18414;59.352;18.152;2023-04-25T01:33:05;3.20;;;2.13;;
31848;SDS011;18414;59.352;18.152;2023-04-25T01:35:32;3.53;;;2.13;;
31848;SDS011;18414;59.352;18.152;2023-04-25T01:37:58;2.87;;;2.13;;
31848;SDS011;18414;59.352;18.152;2023-04-25T01:40:24;2.13;;;1.83;;
31848;SDS011;18414;59.352;18.152;2023-04-25T01:42:50;3.50;;;2.00;;
31848;SDS011;18414;59.352;18.152;2023-04-25T01:45:15;1.90;;;1.60;;
31848;SDS011;18414;59.352;18.152;2023-04-25T01:47:41;2.10;;;1.77;;
31848;SDS011;18414;59.352;18.152;2023-04-25T01:50:08;3.93;;;1.90;;
31848;SDS011;18414;59.352;18.152;2023-04-25T01:52:34;5.60;;;1.83;;
31848;SDS011;18414;59.352;18.152;2023-04-25T01:55:00;4.57;;;1.80;;
31848;SDS011;18414;59.352;18.152;2023-04-25T01:57:26;2.73;;;1.90;;
31848;SDS011;18414;59.352;18.152;2023-04-25T01:59:53;3.27;;;1.60;;
31848;SDS011;18414;59.352;18.152;2023-04-25T02:02:23;2.33;;;1.60;;
31848;SDS011;18414;59.352;18.152;2023-04-25T02:04:49;2.07;;;1.47;;
31848;SDS011;18414;59.352;18.152;2023-04-25T02:07:14;3.10;;;1.60;;
31848;SDS011;18414;59.352;18.152;2023-04-25T02:09:40;1.57;;;1.40;;
31848;SDS011;18414;59.352;18.152;2023-04-25T02:12:07;2.53;;;1.40;;
31848;SDS011;18414;59.352;18.152;2023-04-25T02:14:33;1.97;;;1.53;;
31848;SDS011;18414;59.352;18.152;2023-04-25T02:16:58;1.87;;;1.50;;
31848;SDS011;18414;59.352;18.152;2023-04-25T02:19:24;2.30;;;1.37;;
31848;SDS011;18414;59.352;18.152;2023-04-25T02:21:49;1.63;;;1.20;;
31848;SDS011;18414;59.352;18.152;2023-04-25T02:24:14;1.50;;;1.40;;
31848;SDS011;18414;59.352;18.152;2023-04-25T02:26:40;1.70;;;1.30;;
31848;SDS011;18414;59.352;18.152;2023-04-25T02:29:05;1.43;;;1.13;;
31848;SDS011;18414;59.352;18.152;2023-04-25T02:31:30;1.40;;;1.30;;
31848;SDS011;18414;59.352;18.152;2023-04-25T02:33:56;1.10;;;1.00;;
31848;SDS011;18414;59.352;18.152;2023-04-25T02:36:21;2.50;;;0.90;;
31848;SDS011;18414;59.352;18.152;2023-04-25T02:38:46;1.30;;;1.20;;
31848;SDS011;18414;59.352;18.152;2023-04-25T02:41:12;1.67;;;1.10;;
31848;SDS011;18414;59.352;18.152;2023-04-25T02:43:38;1.33;;;1.13;;
31848;SDS011;18414;59.352;18.152;2023-04-25T02:46:04;1.60;;;1.50;;
31848;SDS011;18414;59.352;18.152;2023-04-25T02:48:29;1.10;;;1.00;;
31848;SDS011;18414;59.352;18.152;2023-04-25T02:51:03;1.40;;;1.30;;
31848;SDS011;18414;59.352;18.152;2023-04-25T02:53:29;1.73;;;1.20;;
31848;SDS011;18414;59.352;18.152;2023-04-25T02:55:54;1.20;;;1.10;;
31848;SDS011;18414;59.352;18.152;2023-04-25T02:58:23;0.80;;;0.80;;
31848;SDS011;18414;59.352;18.152;2023-04-25T03:00:48;1.00;;;0.90;;
31848;SDS011;18414;59.352;18.152;2023-04-25T03:03:13;1.57;;;1.17;;
31848;SDS011;18414;59.352;18.152;2023-04-25T03:05:42;1.00;;;1.00;;
31848;SDS011;18414;59.352;18.152;2023-04-25T03:08:07;1.10;;;1.00;;
31848;SDS011;18414;59.352;18.152;2023-04-25T03:10:33;1.20;;;0.97;;
31848;SDS011;18414;59.352;18.152;2023-04-25T03:12:58;0.90;;;0.90;;
31848;SDS011;18414;59.352;18.152;2023-04-25T03:15:23;1.30;;;1.10;;
31848;SDS011;18414;59.352;18.152;2023-04-25T03:17:49;1.50;;;1.10;;
31848;SDS011;18414;59.352;18.152;2023-04-25T03:20:14;0.90;;;0.90;;
31848;SDS011;18414;59.352;18.152;2023-04-25T03:22:39;1.30;;;1.20;;
31848;SDS011;18414;59.352;18.152;2023-04-25T03:25:05;1.17;;;1.07;;
31848;SDS011;18414;59.352;18.152;2023-04-25T03:27:30;0.73;;;0.73;;
31848;SDS011;18414;59.352;18.152;2023-04-25T03:29:56;0.80;;;0.80;;
31848;SDS011;18414;59.352;18.152;2023-04-25T03:32:21;0.63;;;0.63;;
31848;SDS011;18414;59.352;18.152;2023-04-25T03:34:46;0.77;;;0.77;;
31848;SDS011;18414;59.352;18.152;2023-04-25T03:37:12;1.20;;;1.10;;
31848;SDS011;18414;59.352;18.152;2023-04-25T03:39:37;0.80;;;0.80;;
31848;SDS011;18414;59.352;18.152;2023-04-25T03:42:03;0.90;;;0.90;;
31848;SDS011;18414;59.352;18.152;2023-04-25T03:44:28;1.17;;;1.07;;
31848;SDS011;18414;59.352;18.152;2023-04-25T03:46:54;0.67;;;0.67;;
31848;SDS011;18414;59.352;18.152;2023-04-25T03:49:19;1.23;;;1.10;;
31848;SDS011;18414;59.352;18.152;2023-04-25T03:51:44;1.10;;;1.00;;
31848;SDS011;18414;59.352;18.152;2023-04-25T03:54:10;1.30;;;1.00;;
31848;SDS011;18414;59.352;18.152;2023-04-25T03:56:35;0.77;;;0.77;;
31848;SDS011;18414;59.352;18.152;2023-04-25T03:59:01;1.00;;;1.00;;
31848;SDS011;18414;59.352;18.152;2023-04-25T04:01:26;1.20;;;1.10;;
31848;SDS011;18414;59.352;18.152;2023-04-25T04:03:51;1.43;;;1.10;;
31848;SDS011;18414;59.352;18.152;2023-04-25T04:06:17;1.20;;;1.00;;
31848;SDS011;18414;59.352;18.152;2023-04-25T04:08:42;1.00;;;1.00;;
31848;SDS011;18414;59.352;18.152;2023-04-25T04:11:07;1.33;;;0.90;;
31848;SDS011;18414;59.352;18.152;2023-04-25T04:13:33;1.23;;;1.07;;
31848;SDS011;18414;59.352;18.152;2023-04-25T04:15:58;1.27;;;1.13;;
31848;SDS011;18414;59.352;18.152;2023-04-25T04:18:23;1.33;;;1.23;;
31848;SDS011;18414;59.352;18.152;2023-04-25T04:20:49;1.60;;;1.40;;
31848;SDS011;18414;59.352;18.152;2023-04-25T04:23:14;1.70;;;1.60;;
31848;SDS011;18414;59.352;18.152;2023-04-25T04:25:40;5.63;;;1.80;;
31848;SDS011;18414;59.352;18.152;2023-04-25T04:28:05;2.40;;;1.63;;
31848;SDS011;18414;59.352;18.152;2023-04-25T04:30:32;2.13;;;1.80;;
31848;SDS011;18414;59.352;18.152;2023-04-25T04:32:58;2.07;;;1.63;;
31848;SDS011;18414;59.352;18.152;2023-04-25T04:35:23;2.17;;;1.97;;
31848;SDS011;18414;59.352;18.152;2023-04-25T04:37:49;2.13;;;1.93;;
31848;SDS011;18414;59.352;18.152;2023-04-25T04:40:15;2.13;;;1.80;;
31848;SDS011;18414;59.352;18.152;2023-04-25T04:42:41;3.10;;;1.90;;
31848;SDS011;18414;59.352;18.152;2023-04-25T04:45:07;3.37;;;2.43;;
31848;SDS011;18414;59.352;18.152;2023-04-25T04:47:33;3.17;;;2.00;;
31848;SDS011;18414;59.352;18.152;2023-04-25T04:49:59;2.60;;;2.30;;
31848;SDS011;18414;59.352;18.152;2023-04-25T04:52:24;3.87;;;2.47;;
31848;SDS011;18414;59.352;18.152;2023-04-25T04:54:50;2.27;;;1.97;;
31848;SDS011;18414;59.352;18.152;2023-04-25T04:57:15;2.77;;;2.20;;
31848;SDS011;18414;59.352;18.152;2023-04-25T04:59:41;2.57;;;2.03;;
31848;SDS011;18414;59.352;18.152;2023-04-25T05:02:06;2.60;;;2.40;;
31848;SDS011;18414;59.352;18.152;2023-04-25T05:04:32;3.10;;;2.60;;
31848;SDS011;18414;59.352;18.152;2023-04-25T05:06:57;5.10;;;2.20;;
31848;SDS011;18414;59.352;18.152;2023-04-25T05:09:22;6.33;;;2.70;;
31848;SDS011;18414;59.352;18.152;2023-04-25T05:11:50;3.07;;;2.60;;
31848;SDS011;18414;59.352;18.152;2023-04-25T05:14:16;3.63;;;2.60;;
31848;SDS011;18414;59.352;18.152;2023-04-25T05:16:42;4.03;;;2.70;;
31848;SDS011;18414;59.352;18.152;2023-04-25T05:19:08;3.30;;;2.40;;
31848;SDS011;18414;59.352;18.152;2023-04-25T05:21:33;4.23;;;3.00;;
31848;SDS011;18414;59.352;18.152;2023-04-25T05:23:59;3.73;;;2.90;;
31848;SDS011;18414;59.352;18.152;2023-04-25T05:26:25;9.63;;;2.90;;
31848;SDS011;18414;59.352;18.152;2023-04-25T05:28:50;5.47;;;2.87;;
31848;SDS011;18414;59.352;18.152;2023-04-25T05:31:16;6.00;;;2.60;;
31848;SDS011;18414;59.352;18.152;2023-04-25T05:33:41;4.30;;;2.43;;
31848;SDS011;18414;59.352;18.152;2023-04-25T05:36:07;3.30;;;2.70;;
31848;SDS011;18414;59.352;18.152;2023-04-25T05:38:32;5.37;;;2.53;;
31848;SDS011;18414;59.352;18.152;2023-04-25T05:40:57;2.70;;;2.07;;
31848;SDS011;18414;59.352;18.152;2023-04-25T05:43:23;2.93;;;2.20;;
31848;SDS011;18414;59.352;18.152;2023-04-25T05:45:48;4.07;;;2.60;;
31848;SDS011;18414;59.352;18.152;2023-04-25T05:48:14;4.67;;;2.70;;
31848;SDS011;18414;59.352;18.152;2023-04-25T05:50:39;2.47;;;2.17;;
31848;SDS011;18414;59.352;18.152;2023-04-25T05:53:04;2.80;;;2.43;;
31848;SDS011;18414;59.352;18.152;2023-04-25T05:55:30;2.67;;;1.97;;
31848;SDS011;18414;59.352;18.152;2023-04-25T05:57:56;2.50;;;2.17;;
31848;SDS011;18414;59.352;18.152;2023-04-25T06:00:22;2.83;;;2.33;;
31848;SDS011;18414;59.352;18.152;2023-04-25T06:02:47;2.47;;;2.10;;
31848;SDS011;18414;59.352;18.152;2023-04-25T06:05:13;2.27;;;2.07;;
31848;SDS011;18414;59.352;18.152;2023-04-25T06:07:38;3.30;;;1.97;;
31848;SDS011;18414;59.352;18.152;2023-04-25T06:10:04;3.90;;;2.47;;
31848;SDS011;18414;59.352;18.152;2023-04-25T06:12:31;3.20;;;2.23;;
31848;SDS011;18414;59.352;18.152;2023-04-25T06:14:58;3.07;;;1.93;;
31848;SDS011;18414;59.352;18.152;2023-04-25T06:17:23;3.50;;;2.10;;
31848;SDS011;18414;59.352;18.152;2023-04-25T06:19:48;3.00;;;2.10;;
31848;SDS011;18414;59.352;18.152;2023-04-25T06:22:14;2.77;;;2.10;;
31848;SDS011;18414;59.352;18.152;2023-04-25T06:24:39;2.60;;;2.03;;
31848;SDS011;18414;59.352;18.152;2023-04-25T06:27:04;2.57;;;2.10;;
31848;SDS011;18414;59.352;18.152;2023-04-25T06:29:30;3.23;;;1.80;;
31848;SDS011;18414;59.352;18.152;2023-04-25T06:31:55;3.00;;;1.90;;
31848;SDS011;18414;59.352;18.152;2023-04-25T06:34:22;2.10;;;1.67;;
31848;SDS011;18414;59.352;18.152;2023-04-25T06:36:47;2.37;;;1.77;;
31848;SDS011;18414;59.352;18.152;2023-04-25T06:39:12;2.87;;;1.90;;
31848;SDS011;18414;59.352;18.152;2023-04-25T06:41:38;3.20;;;1.90;;
31848;SDS011;18414;59.352;18.152;2023-04-25T06:44:03;1.93;;;1.57;;
31848;SDS011;18414;59.352;18.152;2023-04-25T06:46:28;2.50;;;2.10;;
31848;SDS011;18414;59.352;18.152;2023-04-25T06:48:54;2.50;;;2.13;;
31848;SDS011;18414;59.352;18.152;2023-04-25T06:51:19;2.10;;;1.70;;
31848;SDS011;18414;59.352;18.152;2023-04-25T06:53:46;3.17;;;1.80;;
31848;SDS011;18414;59.352;18.152;2023-04-25T06:56:12;2.37;;;1.90;;
31848;SDS011;18414;59.352;18.152;2023-04-25T06:58:37;2.27;;;2.03;;
31848;SDS011;18414;59.352;18.152;2023-04-25T07:01:02;3.20;;;2.13;;
31848;SDS011;18414;59.352;18.152;2023-04-25T07:03:28;2.40;;;2.00;;
31848;SDS011;18414;59.352;18.152;2023-04-25T07:05:53;2.77;;;1.87;;
31848;SDS011;18414;59.352;18.152;2023-04-25T07:08:19;3.23;;;1.83;;
31848;SDS011;18414;59.352;18.152;2023-04-25T07:10:45;3.83;;;1.97;;
31848;SDS011;18414;59.352;18.152;2023-04-25T07:13:11;2.07;;;1.80;;
31848;SDS011;18414;59.352;18.152;2023-04-25T07:15:36;2.70;;;1.90;;
31848;SDS011;18414;59.352;18.152;2023-04-25T07:18:02;3.07;;;1.80;;
31848;SDS011;18414;59.352;18.152;2023-04-25T07:20:27;2.70;;;2.10;;
31848;SDS011;18414;59.352;18.152;2023-04-25T07:22:53;2.60;;;1.73;;
31848;SDS011;18414;59.352;18.152;2023-04-25T07:25:19;3.20;;;2.72;;
31848;SDS011;18414;59.352;18.152;2023-04-25T07:27:44;2.40;;;2.20;;
31848;SDS011;18414;59.352;18.152;2023-04-25T07:30:10;4.80;;;2.47;;
31848;SDS011;18414;59.352;18.152;2023-04-25T07:32:35;3.30;;;2.20;;
31848;SDS011;18414;59.352;18.152;2023-04-25T07:35:01;2.53;;;2.10;;
31848;SDS011;18414;59.352;18.152;2023-04-25T07:37:27;2.50;;;2.00;;
31848;SDS011;18414;59.352;18.152;2023-04-25T07:39:52;2.53;;;2.03;;
31848;SDS011;18414;59.352;18.152;2023-04-25T07:42:17;2.27;;;2.07;;
31848;SDS011;18414;59.352;18.152;2023-04-25T07:44:43;2.97;;;2.20;;
31848;SDS011;18414;59.352;18.152;2023-04-25T07:47:08;4.03;;;2.30;;
31848;SDS011;18414;59.352;18.152;2023-04-25T07:49:37;3.43;;;2.50;;
31848;SDS011;18414;59.352;18.152;2023-04-25T07:52:03;3.33;;;2.50;;
31848;SDS011;18414;59.352;18.152;2023-04-25T07:54:30;3.87;;;2.50;;
31848;SDS011;18414;59.352;18.152;2023-04-25T07:56:56;4.03;;;2.57;;
31848;SDS011;18414;59.352;18.152;2023-04-25T07:59:22;3.53;;;2.50;;
31848;SDS011;18414;59.352;18.152;2023-04-25T08:01:48;3.40;;;2.57;;
31848;SDS011;18414;59.352;18.152;2023-04-25T08:04:13;3.77;;;2.73;;
31848;SDS011;18414;59.352;18.152;2023-04-25T08:06:38;4.23;;;2.80;;
31848;SDS011;18414;59.352;18.152;2023-04-25T08:09:05;4.28;;;2.90;;
31848;SDS011;18414;59.352;18.152;2023-04-25T08:11:30;3.87;;;2.90;;
31848;SDS011;18414;59.352;18.152;2023-04-25T08:13:56;4.10;;;3.07;;
31848;SDS011;18414;59.352;18.152;2023-04-25T08:16:21;4.83;;;3.40;;
31848;SDS011;18414;59.352;18.152;2023-04-25T08:18:47;4.83;;;3.47;;
31848;SDS011;18414;59.352;18.152;2023-04-25T08:21:12;4.87;;;4.03;;
31848;SDS011;18414;59.352;18.152;2023-04-25T08:23:38;4.50;;;3.70;;
31848;SDS011;18414;59.352;18.152;2023-04-25T08:26:04;6.77;;;3.77;;
31848;SDS011;18414;59.352;18.152;2023-04-25T08:28:30;5.43;;;4.00;;
31848;SDS011;18414;59.352;18.152;2023-04-25T08:30:55;6.07;;;3.40;;
31848;SDS011;18414;59.352;18.152;2023-04-25T08:33:21;5.77;;;4.10;;
31848;SDS011;18414;59.352;18.152;2023-04-25T08:35:46;6.63;;;4.07;;
31848;SDS011;18414;59.352;18.152;2023-04-25T08:38:13;5.40;;;3.83;;
31848;SDS011;18414;59.352;18.152;2023-04-25T08:40:39;5.23;;;4.00;;
31848;SDS011;18414;59.352;18.152;2023-04-25T08:43:08;6.20;;;4.60;;
31848;SDS011;18414;59.352;18.152;2023-04-25T08:45:39;5.83;;;4.13;;
31848;SDS011;18414;59.352;18.152;2023-04-25T08:48:10;6.43;;;4.50;;
31848;SDS011;18414;59.352;18.152;2023-04-25T08:50:39;6.90;;;4.50;;
31848;SDS011;18414;59.352;18.152;2023-04-25T08:53:06;6.70;;;4.20;;
31848;SDS011;18414;59.352;18.152;2023-04-25T08:55:34;8.73;;;4.20;;
31848;SDS011;18414;59.352;18.152;2023-04-25T08:58:02;8.17;;;4.40;;
31848;SDS011;18414;59.352;18.152;2023-04-25T09:00:27;6.83;;;4.47;;
31848;SDS011;18414;59.352;18.152;2023-04-25T09:02:53;6.73;;;4.80;;
31848;SDS011;18414;59.352;18.152;2023-04-25T09:05:18;7.57;;;4.63;;
31848;SDS011;18414;59.352;18.152;2023-04-25T09:07:44;7.97;;;5.40;;
31848;SDS011;18414;59.352;18.152;2023-04-25T09:10:09;6.30;;;4.80;;
31848;SDS011;18414;59.352;18.152;2023-04-25T09:12:35;7.13;;;4.90;;
31848;SDS011;18414;59.352;18.152;2023-04-25T09:15:11;8.70;;;5.47;;
31848;SDS011;18414;59.352;18.152;2023-04-25T09:17:38;6.27;;;4.90;;
31848;SDS011;18414;59.352;18.152;2023-04-25T09:20:07;9.13;;;5.27;;
31848;SDS011;18414;59.352;18.152;2023-04-25T09:22:36;11.50;;;6.07;;
31848;SDS011;18414;59.352;18.152;2023-04-25T09:25:03;8.27;;;6.20;;
31848;SDS011;18414;59.352;18.152;2023-04-25T09:27:32;10.13;;;6.33;;
31848;SDS011;18414;59.352;18.152;2023-04-25T09:29:58;10.13;;;6.73;;
31848;SDS011;18414;59.352;18.152;2023-04-25T09:32:27;9.57;;;7.17;;
31848;SDS011;18414;59.352;18.152;2023-04-25T09:34:53;9.40;;;7.57;;
31848;SDS011;18414;59.352;18.152;2023-04-25T09:37:21;10.50;;;8.10;;
31848;SDS011;18414;59.352;18.152;2023-04-25T09:40:05;9.60;;;7.77;;
31848;SDS011;18414;59.352;18.152;2023-04-25T09:42:31;11.10;;;7.93;;
31848;SDS011;18414;59.352;18.152;2023-04-25T09:44:59;11.20;;;8.87;;
31848;SDS011;18414;59.352;18.152;2023-04-25T09:47:28;13.10;;;8.47;;
31848;SDS011;18414;59.352;18.152;2023-04-25T09:49:54;10.67;;;9.03;;
31848;SDS011;18414;59.352;18.152;2023-04-25T09:52:23;10.70;;;8.80;;
31848;SDS011;18414;59.352;18.152;2023-04-25T09:54:49;11.43;;;9.00;;
31848;SDS011;18414;59.352;18.152;2023-04-25T09:59:48;13.37;;;9.23;;
31848;SDS011;18414;59.352;18.152;2023-04-25T10:02:15;12.77;;;8.73;;
31848;SDS011;18414;59.352;18.152;2023-04-25T10:04:41;13.63;;;8.20;;
31848;SDS011;18414;59.352;18.152;2023-04-25T10:07:13;9.50;;;8.00;;
31848;SDS011;18414;59.352;18.152;2023-04-25T10:09:39;8.50;;;7.17;;
31848;SDS011;18414;59.352;18.152;2023-04-25T10:12:05;8.17;;;6.67;;
31848;SDS011;18414;59.352;18.152;2023-04-25T10:14:32;12.67;;;8.00;;
31848;SDS011;18414;59.352;18.152;2023-04-25T10:16:58;10.93;;;8.00;;
31848;SDS011;18414;59.352;18.152;2023-04-25T10:19:24;9.03;;;7.80;;
31848;SDS011;18414;59.352;18.152;2023-04-25T10:22:11;10.47;;;8.83;;
31848;SDS011;18414;59.352;18.152;2023-04-25T10:24:39;11.37;;;8.70;;
31848;SDS011;18414;59.352;18.152;2023-04-25T10:27:05;9.63;;;8.50;;
31848;SDS011;18414;59.352;18.152;2023-04-25T10:29:30;9.70;;;8.70;;
31848;SDS011;18414;59.352;18.152;2023-04-25T10:31:56;11.40;;;10.20;;
31848;SDS011;18414;59.352;18.152;2023-04-25T10:34:37;10.87;;;9.50;;
31848;SDS011;18414;59.352;18.152;2023-04-25T10:37:11;11.37;;;10.10;;
31848;SDS011;18414;59.352;18.152;2023-04-25T10:39:38;12.13;;;10.83;;
31848;SDS011;18414;59.352;18.152;2023-04-25T10:42:07;13.77;;;10.90;;
31848;SDS011;18414;59.352;18.152;2023-04-25T10:44:33;12.93;;;11.10;;
31848;SDS011;18414;59.352;18.152;2023-04-25T10:46:59;12.83;;;10.27;;
31848;SDS011;18414;59.352;18.152;2023-04-25T10:49:36;13.13;;;11.03;;
31848;SDS011;18414;59.352;18.152;2023-04-25T10:54:41;11.53;;;9.10;;
31848;SDS011;18414;59.352;18.152;2023-04-25T10:57:08;11.07;;;8.57;;
31848;SDS011;18414;59.352;18.152;2023-04-25T10:59:58;11.03;;;8.27;;
31848;SDS011;18414;59.352;18.152;2023-04-25T11:02:27;8.23;;;7.43;;
31848;SDS011;18414;59.352;18.152;2023-04-25T11:04:53;8.80;;;7.63;;
31848;SDS011;18414;59.352;18.152;2023-04-25T11:07:23;12.10;;;8.17;;
31848;SDS011;18414;59.352;18.152;2023-04-25T11:09:54;9.00;;;7.17;;
31848;SDS011;18414;59.352;18.152;2023-04-25T11:12:20;12.37;;;8.27;;
31848;SDS011;18414;59.352;18.152;2023-04-25T11:14:45;10.60;;;8.00;;
31848;SDS011;18414;59.352;18.152;2023-04-25T11:17:11;11.80;;;8.00;;
31848;SDS011;18414;59.352;18.152;2023-04-25T11:19:36;10.00;;;7.90;;
31848;SDS011;18414;59.352;18.152;2023-04-25T11:22:02;9.47;;;7.80;;
31848;SDS011;18414;59.352;18.152;2023-04-25T11:24:32;8.50;;;7.07;;
31848;SDS011;18414;59.352;18.152;2023-04-25T11:26:59;9.47;;;6.67;;
31848;SDS011;18414;59.352;18.152;2023-04-25T11:29:27;7.27;;;6.20;;
31848;SDS011;18414;59.352;18.152;2023-04-25T11:31:54;7.97;;;6.50;;
31848;SDS011;18414;59.352;18.152;2023-04-25T11:34:22;6.43;;;5.50;;
31848;SDS011;18414;59.352;18.152;2023-04-25T11:36:49;6.97;;;6.13;;
31848;SDS011;18414;59.352;18.152;2023-04-25T11:39:15;8.30;;;6.37;;
31848;SDS011;18414;59.352;18.152;2023-04-25T11:41:41;8.30;;;6.50;;
31848;SDS011;18414;59.352;18.152;2023-04-25T11:44:06;10.00;;;6.77;;
31848;SDS011;18414;59.352;18.152;2023-04-25T11:46:35;8.83;;;7.10;;
31848;SDS011;18414;59.352;18.152;2023-04-25T11:49:00;7.80;;;6.70;;
31848;SDS011;18414;59.352;18.152;2023-04-25T11:51:25;9.30;;;6.47;;
31848;SDS011;18414;59.352;18.152;2023-04-25T11:53:52;9.20;;;7.60;;
31848;SDS011;18414;59.352;18.152;2023-04-25T11:56:17;9.40;;;7.33;;
31848;SDS011;18414;59.352;18.152;2023-04-25T11:58:58;8.10;;;7.23;;
31848;SDS011;18414;59.352;18.152;2023-04-25T12:01:32;8.93;;;6.77;;
31848;SDS011;18414;59.352;18.152;2023-04-25T12:04:15;8.60;;;6.60;;
31848;SDS011;18414;59.352;18.152;2023-04-25T12:06:52;8.70;;;6.63;;
31848;SDS011;18414;59.352;18.152;2023-04-25T12:09:19;7.10;;;6.40;;
31848;SDS011;18414;59.352;18.152;2023-04-25T12:11:52;9.33;;;6.40;;
31848;SDS011;18414;59.352;18.152;2023-04-25T12:14:25;8.17;;;6.20;;
31848;SDS011;18414;59.352;18.152;2023-04-25T12:16:52;6.73;;;6.03;;
31848;SDS011;18414;59.352;18.152;2023-04-25T12:19:19;7.77;;;6.93;;
31848;SDS011;18414;59.352;18.152;2023-04-25T12:21:45;7.40;;;6.13;;
31848;SDS011;18414;59.352;18.152;2023-04-25T12:24:15;8.07;;;6.40;;
31848;SDS011;18414;59.352;18.152;2023-04-25T12:26:48;7.90;;;6.00;;
31848;SDS011;18414;59.352;18.152;2023-04-25T12:29:18;12.73;;;6.73;;
31848;SDS011;18414;59.352;18.152;2023-04-25T12:31:48;8.17;;;6.40;;
31848;SDS011;18414;59.352;18.152;2023-04-25T12:34:14;7.93;;;6.77;;
31848;SDS011;18414;59.352;18.152;2023-04-25T12:36:39;8.10;;;6.27;;
31848;SDS011;18414;59.352;18.152;2023-04-25T12:39:05;8.60;;;6.17;;
31848;SDS011;18414;59.352;18.152;2023-04-25T12:41:31;8.50;;;6.23;;
31848;SDS011;18414;59.352;18.152;2023-04-25T12:43:56;8.97;;;5.93;;
31848;SDS011;18414;59.352;18.152;2023-04-25T12:46:22;8.53;;;6.70;;
31848;SDS011;18414;59.352;18.152;2023-04-25T12:48:50;7.60;;;5.57;;
31848;SDS011;18414;59.352;18.152;2023-04-25T12:51:15;8.93;;;5.90;;
31848;SDS011;18414;59.352;18.152;2023-04-25T12:53:41;7.47;;;5.07;;
31848;SDS011;18414;59.352;18.152;2023-04-25T12:56:07;6.37;;;5.77;;
31848;SDS011;18414;59.352;18.152;2023-04-25T12:58:34;6.40;;;5.40;;
31848;SDS011;18414;59.352;18.152;2023-04-25T13:00:59;9.23;;;5.60;;
31848;SDS011;18414;59.352;18.152;2023-04-25T13:03:25;7.27;;;6.00;;
31848;SDS011;18414;59.352;18.152;2023-04-25T13:05:50;9.27;;;6.07;;
31848;SDS011;18414;59.352;18.152;2023-04-25T13:08:17;8.60;;;5.90;;
31848;SDS011;18414;59.352;18.152;2023-04-25T13:10:45;6.63;;;5.47;;
31848;SDS011;18414;59.352;18.152;2023-04-25T13:13:12;8.03;;;5.97;;
31848;SDS011;18414;59.352;18.152;2023-04-25T13:15:38;10.80;;;6.13;;
31848;SDS011;18414;59.352;18.152;2023-04-25T13:18:03;7.93;;;6.03;;
31848;SDS011;18414;59.352;18.152;2023-04-25T13:20:30;9.70;;;6.27;;
31848;SDS011;18414;59.352;18.152;2023-04-25T13:22:56;7.73;;;5.93;;
31848;SDS011;18414;59.352;18.152;2023-04-25T13:25:22;8.50;;;6.27;;
31848;SDS011;18414;59.352;18.152;2023-04-25T13:27:47;6.90;;;5.90;;
31848;SDS011;18414;59.352;18.152;2023-04-25T13:30:13;8.77;;;6.57;;
31848;SDS011;18414;59.352;18.152;2023-04-25T13:32:38;8.17;;;6.37;;
31848;SDS011;18414;59.352;18.152;2023-04-25T13:35:05;8.60;;;6.77;;
31848;SDS011;18414;59.352;18.152;2023-04-25T13:37:36;11.00;;;6.37;;
31848;SDS011;18414;59.352;18.152;2023-04-25T13:40:02;8.73;;;6.63;;
31848;SDS011;18414;59.352;18.152;2023-04-25T13:42:30;6.83;;;5.30;;
31848;SDS011;18414;59.352;18.152;2023-04-25T13:44:56;8.53;;;5.17;;
31848;SDS011;18414;59.352;18.152;2023-04-25T13:47:21;5.13;;;4.57;;
31848;SDS011;18414;59.352;18.152;2023-04-25T13:49:49;5.07;;;4.03;;
31848;SDS011;18414;59.352;18.152;2023-04-25T13:52:15;7.63;;;4.67;;
31848;SDS011;18414;59.352;18.152;2023-04-25T13:54:40;6.40;;;4.40;;
31848;SDS011;18414;59.352;18.152;2023-04-25T13:57:06;5.07;;;4.27;;
31848;SDS011;18414;59.352;18.152;2023-04-25T13:59:31;5.20;;;4.33;;
31848;SDS011;18414;59.352;18.152;2023-04-25T14:01:57;5.37;;;4.33;;
31848;SDS011;18414;59.352;18.152;2023-04-25T14:04:22;6.23;;;4.80;;
31848;SDS011;18414;59.352;18.152;2023-04-25T14:06:47;8.87;;;4.40;;
31848;SDS011;18414;59.352;18.152;2023-04-25T14:09:13;9.10;;;5.20;;
31848;SDS011;18414;59.352;18.152;2023-04-25T14:11:38;7.00;;;5.20;;
31848;SDS011;18414;59.352;18.152;2023-04-25T14:14:04;7.33;;;5.47;;
31848;SDS011;18414;59.352;18.152;2023-04-25T14:16:29;6.17;;;4.60;;
31848;SDS011;18414;59.352;18.152;2023-04-25T14:18:57;5.23;;;4.73;;
31848;SDS011;18414;59.352;18.152;2023-04-25T14:21:23;5.83;;;4.87;;
31848;SDS011;18414;59.352;18.152;2023-04-25T14:23:48;6.63;;;4.70;;
31848;SDS011;18414;59.352;18.152;2023-04-25T14:26:14;8.70;;;4.73;;
31848;SDS011;18414;59.352;18.152;2023-04-25T14:28:39;7.37;;;4.73;;
31848;SDS011;18414;59.352;18.152;2023-04-25T14:31:04;5.13;;;4.63;;
31848;SDS011;18414;59.352;18.152;2023-04-25T14:33:30;6.17;;;5.30;;